createdAt,value
2022-10-28T00:03:01.330Z,5.88
2022-10-28T00:06:04.903Z,1.88
2022-10-28T00:09:11.285Z,5.18
2022-10-28T00:12:14.969Z,4.82
2022-10-28T00:15:19.569Z,2.10
2022-10-28T00:18:22.271Z,3.38
2022-10-28T00:21:26.196Z,3.88
2022-10-28T00:24:29.028Z,5.65
2022-10-28T00:27:33.194Z,6.70
2022-10-28T00:30:37.192Z,9.70
2022-10-28T00:33:43.249Z,4.50
2022-10-28T00:36:46.594Z,3.75
2022-10-28T00:39:49.259Z,3.55
2022-10-28T00:42:52.345Z,3.38
2022-10-28T00:45:56.495Z,5.43
2022-10-28T00:49:01.604Z,5.55
2022-10-28T00:52:07.153Z,4.38
2022-10-28T00:55:10.272Z,4.15
2022-10-28T00:58:13.129Z,4.30
2022-10-28T01:01:17.212Z,4.25
2022-10-28T01:04:20.028Z,5.93
2022-10-28T01:07:23.134Z,11.90
2022-10-28T01:10:30.238Z,6.70
2022-10-28T01:13:38.830Z,4.30
2022-10-28T01:16:46.239Z,5.85
2022-10-28T01:20:06.672Z,2.45
2022-10-28T01:23:14.227Z,5.32
2022-10-28T01:26:31.846Z,6.57
2022-10-28T01:29:49.590Z,7.13
2022-10-28T01:32:56.802Z,5.38
2022-10-28T01:36:05.573Z,3.00
2022-10-28T01:39:13.237Z,4.20
2022-10-28T01:42:21.340Z,3.47
2022-10-28T01:45:26.231Z,3.05
2022-10-28T01:48:33.762Z,6.78
2022-10-28T01:51:38.735Z,2.90
2022-10-28T01:54:42.989Z,5.15
2022-10-28T01:57:47.472Z,5.53
2022-10-28T02:00:50.228Z,2.30
2022-10-28T02:03:55.165Z,5.15
2022-10-28T02:06:59.201Z,9.73
2022-10-28T02:10:04.491Z,5.93
2022-10-28T02:13:11.790Z,1.33
2022-10-28T02:16:19.641Z,4.32
2022-10-28T02:19:27.463Z,3.00
2022-10-28T02:22:32.285Z,4.47
2022-10-28T02:25:37.854Z,5.28
2022-10-28T02:28:43.662Z,4.32
2022-10-28T02:31:48.511Z,1.58
2022-10-28T02:34:54.514Z,4.72
2022-10-28T02:37:59.621Z,4.15
2022-10-28T02:41:03.885Z,3.38
2022-10-28T02:44:08.487Z,3.75
2022-10-28T02:47:12.654Z,2.75
2022-10-28T02:50:19.037Z,5.18
2022-10-28T02:53:22.800Z,5.35
2022-10-28T02:56:25.451Z,3.40
2022-10-28T02:59:29.745Z,4.90
2022-10-28T03:02:32.678Z,3.75
2022-10-28T03:05:37.152Z,4.40
2022-10-28T03:08:40.159Z,2.05
2022-10-28T03:11:43.190Z,4.13
2022-10-28T03:14:47.076Z,5.18
2022-10-28T03:17:49.762Z,3.85
2022-10-28T03:20:56.752Z,2.55
2022-10-28T03:24:01.767Z,5.05
2022-10-28T03:27:04.551Z,1.98
2022-10-28T03:30:07.876Z,4.25
2022-10-28T03:33:10.582Z,2.80
2022-10-28T03:36:14.496Z,1.55
2022-10-28T03:39:17.026Z,3.00
2022-10-28T03:42:19.588Z,1.73
2022-10-28T03:45:22.201Z,5.38
2022-10-28T03:48:25.588Z,3.60
2022-10-28T03:51:30.021Z,5.55
2022-10-28T03:54:33.151Z,3.25
2022-10-28T03:57:35.772Z,3.42
2022-10-28T04:00:38.312Z,2.40
2022-10-28T04:03:41.120Z,3.90
2022-10-28T04:06:45.044Z,3.00
2022-10-28T04:09:49.860Z,4.22
2022-10-28T04:12:52.934Z,5.80
2022-10-28T04:15:56.547Z,2.83
2022-10-28T04:18:59.106Z,3.20
2022-10-28T04:22:03.074Z,5.28
2022-10-28T04:25:06.161Z,4.65
2022-10-28T04:28:09.045Z,3.55
2022-10-28T04:31:12.758Z,1.90
2022-10-28T04:34:15.978Z,3.85
2022-10-28T04:37:20.772Z,7.75
2022-10-28T04:40:23.365Z,7.45
2022-10-28T04:43:25.976Z,4.63
2022-10-28T04:46:28.757Z,3.45
2022-10-28T04:49:34.303Z,5.95
2022-10-28T04:52:40.726Z,8.60
2022-10-28T04:55:43.489Z,8.60
2022-10-28T04:58:47.626Z,5.43
2022-10-28T05:01:50.839Z,2.90
2022-10-28T05:04:53.536Z,3.58
2022-10-28T05:07:58.296Z,3.90
2022-10-28T05:11:00.961Z,6.72
2022-10-28T05:14:06.427Z,11.07
2022-10-28T05:17:09.344Z,6.43
2022-10-28T05:20:12.926Z,6.60
2022-10-28T05:23:16.837Z,5.85
2022-10-28T05:26:22.254Z,6.35
2022-10-28T05:29:26.247Z,7.68
2022-10-28T05:32:30.280Z,5.45
2022-10-28T05:35:33.035Z,2.72
2022-10-28T05:38:36.987Z,4.63
2022-10-28T05:41:39.888Z,6.82
2022-10-28T05:44:42.399Z,4.68
2022-10-28T05:47:45.199Z,7.13
2022-10-28T05:50:48.153Z,6.40
2022-10-28T05:53:52.268Z,9.63
2022-10-28T05:56:54.810Z,12.00
2022-10-28T05:59:57.443Z,5.30
2022-10-28T06:03:03.870Z,6.72
2022-10-28T06:06:06.682Z,6.15
2022-10-28T06:09:10.595Z,9.30
2022-10-28T06:12:12.175Z,4.97
2022-10-28T06:15:15.126Z,7.75
2022-10-28T06:18:19.030Z,6.68
2022-10-28T06:21:21.748Z,4.65
2022-10-28T06:24:25.832Z,5.88
2022-10-28T06:27:28.363Z,6.68
2022-10-28T06:30:31.079Z,6.65
2022-10-28T06:33:34.568Z,3.85
2022-10-28T06:36:37.644Z,5.13
2022-10-28T06:39:42.887Z,3.35
2022-10-28T06:42:45.577Z,3.58
2022-10-28T06:45:53.410Z,4.57
2022-10-28T06:48:57.949Z,4.50
2022-10-28T06:52:00.457Z,4.30
2022-10-28T06:55:04.827Z,7.53
2022-10-28T06:58:07.584Z,7.28
2022-10-28T07:01:11.219Z,8.40
2022-10-28T07:04:15.030Z,4.68
2022-10-28T07:07:17.679Z,5.38
2022-10-28T07:10:21.711Z,5.07
2022-10-28T07:13:24.404Z,5.40
2022-10-28T07:16:27.210Z,6.80
2022-10-28T07:19:30.411Z,5.47
2022-10-28T07:22:33.754Z,5.45
2022-10-28T07:25:37.789Z,5.47
2022-10-28T07:28:42.749Z,7.13
2022-10-28T07:31:45.960Z,6.57
2022-10-28T07:34:48.588Z,7.88
2022-10-28T07:37:51.262Z,7.28
2022-10-28T07:40:55.162Z,7.55
2022-10-28T07:43:58.149Z,5.75
2022-10-28T07:47:00.647Z,4.45
2022-10-28T07:50:03.287Z,6.45
2022-10-28T07:53:05.987Z,4.80
2022-10-28T07:56:13.746Z,5.40
2022-10-28T07:59:16.920Z,11.77
2022-10-28T08:02:20.603Z,7.15
2022-10-28T08:05:23.534Z,5.75
2022-10-28T08:08:26.579Z,5.15
2022-10-28T08:11:30.825Z,5.95
2022-10-28T08:14:33.740Z,9.27
2022-10-28T08:17:36.382Z,7.38
2022-10-28T08:20:39.032Z,4.05
2022-10-28T08:23:46.509Z,5.82
2022-10-28T08:26:50.798Z,4.40
2022-10-28T08:29:53.999Z,3.10
2022-10-28T08:32:56.881Z,10.55
2022-10-28T08:36:00.231Z,9.63
2022-10-28T08:39:03.392Z,8.05
2022-10-28T08:42:20.031Z,4.22
2022-10-28T08:45:26.691Z,8.75
2022-10-28T08:48:32.327Z,4.63
2022-10-28T08:51:37.621Z,15.77
2022-10-28T08:54:42.936Z,4.28
2022-10-28T08:57:50.584Z,6.72
2022-10-28T09:00:55.250Z,9.43
2022-10-28T09:04:00.052Z,11.48
2022-10-28T09:07:10.363Z,11.25
2022-10-28T09:10:19.067Z,4.47
2022-10-28T09:13:28.769Z,7.35
2022-10-28T09:16:38.108Z,5.25
2022-10-28T09:19:48.694Z,8.70
2022-10-28T09:22:57.500Z,3.38
2022-10-28T09:26:08.417Z,7.25
2022-10-28T09:29:21.743Z,15.05
2022-10-28T09:32:28.897Z,12.02
2022-10-28T09:35:33.460Z,9.48
2022-10-28T09:38:37.842Z,5.93
2022-10-28T09:42:02.060Z,7.20
2022-10-28T09:45:11.749Z,8.20
2022-10-28T09:48:17.713Z,9.82
2022-10-28T09:51:37.428Z,28.52
2022-10-28T09:54:43.694Z,67.32
2022-10-28T09:57:49.217Z,50.47
2022-10-28T10:01:00.727Z,24.77
2022-10-28T10:04:04.528Z,8.18
2022-10-28T10:07:15.592Z,21.48
2022-10-28T10:10:25.021Z,12.85
2022-10-28T10:13:33.678Z,9.32
2022-10-28T10:16:49.845Z,5.13
2022-10-28T10:20:08.255Z,4.93
2022-10-28T10:23:26.227Z,5.63
2022-10-28T10:26:35.394Z,6.88
2022-10-28T10:29:51.190Z,7.65
2022-10-28T10:32:57.679Z,6.57
2022-10-28T10:36:06.332Z,8.30
2022-10-28T10:39:38.673Z,13.68
2022-10-28T10:43:12.951Z,8.23
2022-10-28T10:46:30.375Z,8.00
2022-10-28T10:49:41.319Z,7.22
2022-10-28T10:53:10.980Z,6.30
2022-10-28T10:56:22.853Z,9.50
2022-10-28T10:59:32.854Z,12.75
2022-10-28T11:02:37.964Z,9.00
2022-10-28T11:06:22.702Z,9.05
2022-10-28T11:09:32.734Z,7.75
2022-10-28T11:12:37.256Z,5.60
2022-10-28T11:15:43.785Z,9.02
2022-10-28T11:18:51.171Z,9.30
2022-10-28T11:22:04.628Z,4.85
2022-10-28T11:25:24.666Z,10.13
2022-10-28T11:28:35.616Z,13.15
2022-10-28T11:31:51.798Z,6.70
2022-10-28T11:35:04.150Z,5.90
2022-10-28T11:42:02.872Z,6.65
2022-10-28T11:45:09.413Z,11.35
2022-10-28T11:48:25.429Z,8.15
2022-10-28T11:51:36.635Z,3.63
2022-10-28T11:54:55.982Z,7.65
2022-10-28T11:58:11.216Z,8.90
2022-10-28T12:01:25.136Z,9.02
2022-10-28T12:04:36.622Z,7.68
2022-10-28T12:07:49.389Z,7.55
2022-10-28T12:11:06.571Z,9.55
2022-10-28T12:14:21.600Z,6.43
2022-10-28T12:17:39.899Z,6.65
2022-10-28T12:20:53.635Z,11.23
2022-10-28T12:24:04.214Z,8.68
2022-10-28T12:27:18.322Z,6.38
2022-10-28T12:30:24.507Z,8.77
2022-10-28T12:33:36.796Z,6.00
2022-10-28T12:36:47.922Z,16.77
2022-10-28T12:40:03.967Z,12.43
2022-10-28T12:43:14.660Z,9.82
2022-10-28T12:46:26.810Z,4.63
2022-10-28T12:49:39.315Z,8.35
2022-10-28T12:52:50.364Z,9.40
2022-10-28T12:56:01.655Z,7.40
2022-10-28T12:59:15.522Z,8.10
2022-10-28T13:02:29.456Z,8.07
2022-10-28T13:05:40.929Z,10.20
2022-10-28T13:12:12.996Z,12.50
2022-10-28T13:15:30.926Z,8.50
2022-10-28T13:18:52.395Z,9.00
2022-10-28T13:22:13.230Z,6.07
2022-10-28T13:25:37.527Z,8.07
2022-10-28T13:28:49.377Z,15.45
2022-10-28T13:31:59.566Z,7.28
2022-10-28T13:35:13.413Z,5.55
2022-10-28T13:38:28.841Z,12.80
2022-10-28T13:41:35.110Z,13.35
2022-10-28T13:44:50.974Z,8.65
2022-10-28T13:48:18.655Z,9.20
2022-10-28T13:51:33.338Z,7.55
2022-10-28T13:54:51.916Z,4.90
2022-10-28T13:58:02.173Z,9.20
2022-10-28T14:01:24.562Z,11.80
2022-10-28T14:04:38.878Z,7.63
2022-10-28T14:07:56.859Z,12.55
2022-10-28T14:11:06.832Z,10.30
2022-10-28T14:14:16.546Z,10.00
2022-10-28T14:17:24.186Z,11.10
2022-10-28T14:20:32.937Z,7.82
2022-10-28T14:24:09.871Z,7.72
2022-10-28T14:27:47.275Z,3.55
2022-10-28T14:31:05.547Z,9.00
2022-10-28T14:34:31.470Z,7.07
2022-10-28T14:37:54.989Z,6.80
2022-10-28T14:41:09.062Z,9.43
2022-10-28T14:44:31.135Z,10.15
2022-10-28T14:47:47.729Z,8.13
2022-10-28T14:50:57.269Z,5.55
2022-10-28T14:54:05.358Z,10.68
2022-10-28T14:57:13.517Z,6.53
2022-10-28T15:00:24.691Z,5.55
2022-10-28T15:03:33.823Z,7.78
2022-10-28T15:06:42.036Z,15.00
2022-10-28T15:09:53.810Z,8.55
2022-10-28T15:13:01.598Z,21.83
2022-10-28T15:16:07.898Z,7.88
2022-10-28T15:19:13.711Z,9.50
2022-10-28T15:22:31.120Z,14.82
2022-10-28T15:25:44.182Z,12.95
2022-10-28T15:29:05.961Z,12.65
2022-10-28T15:32:17.376Z,12.55
2022-10-28T15:39:09.621Z,11.85
2022-10-28T15:42:39.612Z,8.40
2022-10-28T15:45:49.499Z,9.80
2022-10-28T15:48:57.860Z,10.15
2022-10-28T15:52:23.402Z,11.65
2022-10-28T15:55:41.386Z,7.47
2022-10-28T15:59:16.742Z,7.32
2022-10-28T16:02:41.479Z,11.32
2022-10-28T16:05:50.215Z,9.57
2022-10-28T16:09:02.800Z,15.60
2022-10-28T16:12:19.156Z,13.15
2022-10-28T16:15:25.969Z,9.60
2022-10-28T16:18:35.638Z,8.88
2022-10-28T16:21:55.281Z,7.30
2022-10-28T16:25:21.098Z,8.63
2022-10-28T16:28:45.332Z,8.65
2022-10-28T16:32:02.499Z,13.68
2022-10-28T16:35:22.933Z,15.65
2022-10-28T16:38:45.239Z,16.10
2022-10-28T16:43:22.263Z,8.63
2022-10-28T16:46:29.495Z,12.52
2022-10-28T16:50:09.109Z,8.70
2022-10-28T16:54:01.734Z,13.35
2022-10-28T16:57:32.577Z,11.38
2022-10-28T17:04:53.865Z,6.88
2022-10-28T17:08:09.923Z,8.48
2022-10-28T17:15:50.807Z,7.28
2022-10-28T17:19:14.071Z,8.30
2022-10-28T17:22:40.103Z,10.15
2022-10-28T17:25:59.485Z,9.88
2022-10-28T17:29:12.103Z,9.05
2022-10-28T17:32:42.579Z,8.23
2022-10-28T17:35:58.287Z,9.45
2022-10-28T17:39:19.596Z,12.40
2022-10-28T17:42:58.370Z,11.00
2022-10-28T17:46:33.159Z,6.90
2022-10-28T17:50:10.806Z,9.73
2022-10-28T17:53:26.445Z,13.13
2022-10-28T17:56:42.305Z,11.25
2022-10-28T18:00:07.031Z,5.68
2022-10-28T18:03:24.476Z,12.23
2022-10-28T18:06:39.636Z,4.30
2022-10-28T18:09:45.259Z,12.02
2022-10-28T18:12:52.016Z,6.28
2022-10-28T18:15:56.212Z,10.38
2022-10-28T18:19:08.675Z,11.45
2022-10-28T18:22:16.992Z,20.17
2022-10-28T18:25:21.366Z,14.27
2022-10-28T18:28:33.744Z,6.00
2022-10-28T18:31:47.749Z,8.63
2022-10-28T18:34:56.012Z,14.82
2022-10-28T18:38:03.696Z,16.15
2022-10-28T18:41:15.273Z,17.65
2022-10-28T18:44:21.845Z,9.63
2022-10-28T18:47:29.297Z,5.88
2022-10-28T18:50:49.174Z,8.88
2022-10-28T18:54:01.508Z,8.55
2022-10-28T18:57:08.086Z,12.38
2022-10-28T19:00:29.283Z,7.57
2022-10-28T19:03:40.975Z,13.93
2022-10-28T19:06:55.953Z,9.10
2022-10-28T19:10:18.294Z,10.55
2022-10-28T19:13:35.079Z,11.32
2022-10-28T19:16:47.207Z,6.72
2022-10-28T19:19:54.084Z,14.98
2022-10-28T19:23:02.187Z,9.30
2022-10-28T19:26:18.424Z,5.03
2022-10-28T19:29:28.852Z,15.52
2022-10-28T19:32:35.158Z,16.85
2022-10-28T19:35:45.882Z,9.52
2022-10-28T19:38:54.175Z,12.73
2022-10-28T19:42:10.462Z,10.60
2022-10-28T19:45:33.506Z,9.50
2022-10-28T19:48:42.803Z,14.43
2022-10-28T19:51:55.284Z,9.27
2022-10-28T19:55:13.683Z,12.50
2022-10-28T19:58:33.773Z,7.28
2022-10-28T20:01:44.451Z,9.10
2022-10-28T20:04:56.414Z,9.07
2022-10-28T20:08:01.319Z,5.95
2022-10-28T20:11:11.256Z,13.52
2022-10-28T20:14:19.462Z,11.93
2022-10-28T20:17:32.904Z,11.23
2022-10-28T20:20:42.421Z,13.00
2022-10-28T20:23:56.027Z,18.90
2022-10-28T20:26:59.821Z,7.55
2022-10-28T20:30:03.801Z,8.85
2022-10-28T20:33:10.245Z,14.35
2022-10-28T20:36:24.126Z,12.30
2022-10-28T20:39:28.712Z,13.68
2022-10-28T20:42:32.663Z,15.63
2022-10-28T20:45:36.349Z,14.00
2022-10-28T20:48:45.630Z,7.53
2022-10-28T20:51:50.458Z,9.02
2022-10-28T20:54:55.460Z,14.70
2022-10-28T20:58:01.820Z,10.18
2022-10-28T21:01:08.271Z,11.05
2022-10-28T21:04:16.625Z,14.57
2022-10-28T21:07:25.300Z,16.80
2022-10-28T21:10:35.214Z,15.15
2022-10-28T21:21:40.044Z,12.07
2022-10-28T21:24:42.607Z,9.90
2022-10-28T21:27:45.162Z,12.57
2022-10-28T21:30:47.857Z,15.88
2022-10-28T21:33:55.473Z,17.33
2022-10-28T21:36:59.423Z,12.30
2022-10-28T21:40:02.164Z,11.02
2022-10-28T21:43:06.945Z,14.10
2022-10-28T21:46:09.899Z,15.07
2022-10-28T21:49:12.587Z,12.10
2022-10-28T21:52:16.589Z,11.73
2022-10-28T21:55:26.862Z,6.43
2022-10-28T21:58:43.025Z,8.43
2022-10-28T22:01:46.047Z,7.03
2022-10-28T22:04:48.715Z,6.90
2022-10-28T22:07:52.689Z,16.55
2022-10-28T22:11:01.161Z,13.07
2022-10-28T22:14:04.562Z,16.75
2022-10-28T22:17:07.319Z,9.15
2022-10-28T22:20:10.764Z,8.73
2022-10-28T22:23:16.847Z,16.33
2022-10-28T22:26:20.732Z,10.15
2022-10-28T22:29:24.804Z,17.25
2022-10-28T22:32:27.318Z,17.35
2022-10-28T22:35:29.953Z,12.27
2022-10-28T22:38:52.577Z,12.93
2022-10-28T22:41:55.249Z,10.63
2022-10-28T22:45:00.926Z,12.38
2022-10-28T22:48:03.382Z,12.13
2022-10-28T22:51:07.193Z,17.40
2022-10-28T22:54:13.641Z,16.52
2022-10-28T22:57:17.188Z,13.20
2022-10-28T23:03:22.578Z,10.32
2022-10-28T23:06:28.154Z,12.27
2022-10-28T23:09:32.477Z,20.58
2022-10-28T23:12:35.020Z,12.10
2022-10-28T23:15:37.874Z,10.23
2022-10-28T23:18:48.022Z,11.90
2022-10-28T23:21:52.590Z,11.23
2022-10-28T23:24:58.070Z,13.65
2022-10-28T23:28:00.655Z,13.57
2022-10-28T23:31:03.384Z,17.75
2022-10-28T23:34:05.983Z,9.80
2022-10-28T23:37:08.503Z,17.02
2022-10-28T23:40:12.759Z,15.10
2022-10-28T23:43:17.980Z,9.27
2022-10-28T23:46:21.456Z,19.38
2022-10-28T23:49:23.903Z,11.40
2022-10-28T23:52:26.542Z,11.80
2022-10-28T23:55:30.323Z,21.02
2022-10-28T23:58:32.793Z,15.38
